createdAt,value
2023-06-19T00:01:43.301Z,97005.47
2023-06-19T00:04:28.761Z,97007.06
2023-06-19T00:07:14.244Z,97004.16
2023-06-19T00:10:00.203Z,97000.19
2023-06-19T00:12:45.476Z,96993.53
2023-06-19T00:15:30.895Z,96993.72
2023-06-19T00:18:18.381Z,96993.56
2023-06-19T00:21:06.799Z,96991.91
2023-06-19T00:23:53.516Z,96989.78
2023-06-19T00:26:38.940Z,96993.16
2023-06-19T00:29:29.289Z,96991.50
2023-06-19T00:32:16.013Z,96995.94
2023-06-19T00:35:02.082Z,96992.72
2023-06-19T00:37:48.013Z,96989.78
2023-06-19T00:40:35.144Z,96985.00
2023-06-19T00:43:20.772Z,96991.06
2023-06-19T00:46:06.258Z,96985.41
2023-06-19T00:48:51.700Z,96981.97
2023-06-19T00:51:38.524Z,96977.75
2023-06-19T00:54:25.048Z,96986.03
2023-06-19T00:57:11.498Z,96977.84
2023-06-19T00:59:57.793Z,96980.25
2023-06-19T01:02:44.169Z,96980.41
2023-06-19T01:05:30.812Z,96978.75
2023-06-19T01:08:28.313Z,96976.72
2023-06-19T01:11:25.949Z,96988.00
2023-06-19T01:14:29.520Z,96984.72
2023-06-19T01:17:15.758Z,96971.44
2023-06-19T01:20:07.811Z,96983.69
2023-06-19T01:22:57.883Z,96972.56
2023-06-19T01:25:43.892Z,96974.66
2023-06-19T01:28:30.233Z,96980.13
2023-06-19T01:31:23.570Z,96981.69
2023-06-19T01:34:12.280Z,96983.53
2023-06-19T01:36:58.799Z,96978.72
2023-06-19T01:39:46.945Z,96977.28
2023-06-19T01:42:33.724Z,96974.31
2023-06-19T01:45:19.261Z,96976.47
2023-06-19T01:48:05.403Z,96972.69
2023-06-19T01:50:51.851Z,96973.94
2023-06-19T01:53:37.864Z,96985.00
2023-06-19T01:56:25.309Z,96977.78
2023-06-19T01:59:10.855Z,96981.97
2023-06-19T02:01:56.177Z,96987.78
2023-06-19T02:04:41.563Z,96981.63
2023-06-19T02:07:27.019Z,96986.63
2023-06-19T02:10:12.342Z,96982.03
2023-06-19T02:12:58.156Z,96987.03
2023-06-19T02:15:44.012Z,96986.47
2023-06-19T02:18:29.382Z,96988.31
2023-06-19T02:21:14.834Z,96993.06
2023-06-19T02:24:00.274Z,96990.31
2023-06-19T02:26:46.179Z,96997.00
2023-06-19T02:29:34.976Z,96991.47
2023-06-19T02:32:21.633Z,96994.69
2023-06-19T02:35:10.039Z,96995.47
2023-06-19T02:37:55.511Z,97000.28
2023-06-19T02:40:40.722Z,96991.59
2023-06-19T02:43:26.189Z,96995.63
2023-06-19T02:46:13.558Z,96996.19
2023-06-19T02:49:02.108Z,96992.00
2023-06-19T02:51:47.383Z,96990.97
2023-06-19T02:54:32.969Z,96985.19
2023-06-19T02:57:18.271Z,97003.28
2023-06-19T03:00:07.193Z,97010.75
2023-06-19T03:02:52.993Z,97013.50
2023-06-19T03:05:39.343Z,97007.72
2023-06-19T03:08:24.857Z,97013.31
2023-06-19T03:11:10.907Z,97012.84
2023-06-19T03:13:57.381Z,97014.78
2023-06-19T03:16:43.202Z,97005.84
2023-06-19T03:19:28.851Z,97003.81
2023-06-19T03:22:14.280Z,97007.31
2023-06-19T03:24:59.780Z,97001.84
2023-06-19T03:27:45.571Z,97014.16
2023-06-19T03:30:31.184Z,97005.22
2023-06-19T03:33:17.051Z,97007.91
2023-06-19T03:36:05.655Z,97001.63
2023-06-19T03:38:59.785Z,97009.66
2023-06-19T03:41:48.386Z,97012.94
2023-06-19T03:44:33.995Z,97011.94
2023-06-19T03:47:19.788Z,97020.00
2023-06-19T03:50:19.816Z,97010.22
2023-06-19T03:53:16.411Z,97010.84
2023-06-19T03:56:01.888Z,97014.06
2023-06-19T03:58:47.101Z,97010.69
2023-06-19T04:01:32.332Z,97016.31
2023-06-19T04:04:17.849Z,97017.16
2023-06-19T04:07:03.814Z,97012.97
2023-06-19T04:09:49.621Z,97021.00
2023-06-19T04:12:36.914Z,97013.63
2023-06-19T04:15:24.082Z,97021.13
2023-06-19T04:18:09.765Z,97019.31
2023-06-19T04:20:56.436Z,97023.63
2023-06-19T04:23:41.814Z,97025.56
2023-06-19T04:26:27.258Z,97029.88
2023-06-19T04:29:17.896Z,97029.91
2023-06-19T04:32:12.333Z,97030.75
2023-06-19T04:34:58.514Z,97038.53
2023-06-19T04:37:44.148Z,97038.56
2023-06-19T04:40:29.763Z,97042.09
2023-06-19T04:43:14.935Z,97048.50
2023-06-19T04:46:00.430Z,97050.41
2023-06-19T04:48:46.623Z,97054.72
2023-06-19T04:51:33.692Z,97059.84
2023-06-19T04:54:19.145Z,97069.47
2023-06-19T04:57:04.922Z,97068.72
2023-06-19T04:59:50.606Z,97074.06
2023-06-19T05:02:35.952Z,97068.78
2023-06-19T05:05:24.372Z,97067.19
2023-06-19T05:08:10.953Z,97077.91
2023-06-19T05:10:57.561Z,97080.88
2023-06-19T05:13:42.713Z,97079.59
2023-06-19T05:16:28.346Z,97094.00
2023-06-19T05:19:14.291Z,97083.34
2023-06-19T05:21:59.611Z,97086.03
2023-06-19T05:24:45.260Z,97079.69
2023-06-19T05:27:30.926Z,97086.41
2023-06-19T05:30:16.556Z,97089.09
2023-06-19T05:33:01.899Z,97076.59
2023-06-19T05:35:53.480Z,97083.03
2023-06-19T05:38:38.832Z,97083.59
2023-06-19T05:41:24.248Z,97087.09
2023-06-19T05:44:10.823Z,97089.25
2023-06-19T05:46:56.646Z,97094.06
2023-06-19T05:49:42.261Z,97100.47
2023-06-19T05:52:28.325Z,97106.09
2023-06-19T05:55:13.780Z,97119.72
2023-06-19T05:57:59.600Z,97122.13
2023-06-19T06:00:44.855Z,97118.94
2023-06-19T06:03:31.406Z,97117.63
2023-06-19T06:06:17.252Z,97113.63
2023-06-19T06:09:03.077Z,97109.91
2023-06-19T06:11:48.333Z,97114.47
2023-06-19T06:14:33.939Z,97117.47
2023-06-19T06:17:19.331Z,97116.97
2023-06-19T06:20:13.614Z,97123.41
2023-06-19T06:22:59.485Z,97125.78
2023-06-19T06:25:46.800Z,97129.28
2023-06-19T06:28:32.798Z,97127.94
2023-06-19T06:31:18.322Z,97136.00
2023-06-19T06:34:03.713Z,97139.47
2023-06-19T06:37:00.655Z,97133.84
2023-06-19T06:39:46.929Z,97138.38
2023-06-19T06:42:32.329Z,97130.91
2023-06-19T06:45:17.873Z,97136.75
2023-06-19T06:48:03.833Z,97132.47
2023-06-19T06:50:49.579Z,97131.34
2023-06-19T06:53:35.290Z,97141.78
2023-06-19T06:56:20.347Z,97140.66
2023-06-19T06:59:05.822Z,97134.47
2023-06-19T07:01:51.012Z,97135.69
2023-06-19T07:04:36.478Z,97128.91
2023-06-19T07:07:22.063Z,97134.97
2023-06-19T07:10:07.821Z,97127.66
2023-06-19T07:12:53.210Z,97125.94
2023-06-19T07:15:39.124Z,97122.63
2023-06-19T07:18:24.825Z,97128.72
2023-06-19T07:21:15.961Z,97128.59
2023-06-19T07:24:02.280Z,97138.91
2023-06-19T07:26:48.374Z,97127.22
2023-06-19T07:29:33.832Z,97127.09
2023-06-19T07:32:19.207Z,97125.81
2023-06-19T07:35:06.033Z,97120.28
2023-06-19T07:37:51.731Z,97120.09
2023-06-19T07:40:36.917Z,97134.13
2023-06-19T07:43:25.271Z,97125.06
2023-06-19T07:46:11.356Z,97124.06
2023-06-19T07:48:56.873Z,97118.25
2023-06-19T07:51:42.316Z,97135.03
2023-06-19T07:54:27.719Z,97143.22
2023-06-19T07:57:13.491Z,97138.47
2023-06-19T07:59:59.338Z,97137.00
2023-06-19T08:02:44.737Z,97155.44
2023-06-19T08:05:30.673Z,97150.00
2023-06-19T08:08:16.050Z,97148.81
2023-06-19T08:11:01.755Z,97147.91
2023-06-19T08:13:47.676Z,97136.03
2023-06-19T08:16:33.253Z,97140.34
2023-06-19T08:19:19.205Z,97154.31
2023-06-19T08:22:04.977Z,97146.13
2023-06-19T08:24:50.643Z,97150.84
2023-06-19T08:27:36.444Z,97145.28
2023-06-19T08:30:21.856Z,97142.41
2023-06-19T08:33:07.731Z,97136.31
2023-06-19T08:35:53.917Z,97137.22
2023-06-19T08:38:39.507Z,97146.38
2023-06-19T08:41:24.943Z,97144.28
2023-06-19T08:44:10.903Z,97143.59
2023-06-19T08:46:58.829Z,97154.13
2023-06-19T08:49:44.676Z,97163.94
2023-06-19T08:52:30.172Z,97159.31
2023-06-19T08:55:16.307Z,97157.97
2023-06-19T08:58:01.715Z,97152.88
2023-06-19T09:00:48.869Z,97148.50
2023-06-19T09:03:34.732Z,97141.94
2023-06-19T09:06:21.140Z,97144.75
2023-06-19T09:09:12.027Z,97142.78
2023-06-19T09:12:05.409Z,97146.69
2023-06-19T09:14:55.737Z,97142.00
2023-06-19T09:17:41.939Z,97130.88
2023-06-19T09:20:39.797Z,97141.75
2023-06-19T09:23:26.281Z,97130.88
2023-06-19T09:26:17.055Z,97121.34
2023-06-19T09:29:22.938Z,97126.78
2023-06-19T09:32:23.128Z,97121.81
2023-06-19T09:35:10.275Z,97126.94
2023-06-19T09:37:56.086Z,97124.41
2023-06-19T09:40:41.778Z,97119.59
2023-06-19T09:43:34.869Z,97117.03
2023-06-19T09:46:21.076Z,97120.78
2023-06-19T09:49:08.114Z,97126.81
2023-06-19T09:51:54.013Z,97122.34
2023-06-19T09:54:40.602Z,97125.47
2023-06-19T09:57:27.038Z,97128.75
2023-06-19T10:00:27.734Z,97131.38
2023-06-19T10:03:14.537Z,97135.28
2023-06-19T10:06:04.821Z,97133.78
2023-06-19T10:08:52.396Z,97132.78
2023-06-19T10:11:48.558Z,97125.81
2023-06-19T10:14:34.159Z,97142.16
2023-06-19T10:17:20.223Z,97133.97
2023-06-19T10:20:12.805Z,97148.59
2023-06-19T10:23:11.864Z,97149.06
2023-06-19T10:26:00.452Z,97153.03
2023-06-19T10:28:49.153Z,97153.03
2023-06-19T10:31:34.897Z,97157.66
2023-06-19T10:34:20.476Z,97167.72
2023-06-19T10:37:06.294Z,97162.28
2023-06-19T10:39:52.246Z,97166.91
2023-06-19T10:42:38.574Z,97161.69
2023-06-19T10:45:29.510Z,97161.13
2023-06-19T10:48:24.600Z,97159.59
2023-06-19T10:51:10.259Z,97155.47
2023-06-19T10:53:57.225Z,97152.94
2023-06-19T10:56:44.645Z,97161.63
2023-06-19T10:59:30.598Z,97162.00
2023-06-19T11:02:19.624Z,97157.72
2023-06-19T11:05:05.927Z,97155.41
2023-06-19T11:08:00.287Z,97156.09
2023-06-19T11:10:46.342Z,97150.13
2023-06-19T11:13:31.831Z,97149.03
2023-06-19T11:16:17.582Z,97154.00
2023-06-19T11:19:03.115Z,97151.34
2023-06-19T11:21:50.464Z,97148.16
2023-06-19T11:24:36.089Z,97149.63
2023-06-19T11:27:29.797Z,97145.34
2023-06-19T11:30:15.504Z,97141.72
2023-06-19T11:33:02.891Z,97137.44
2023-06-19T11:35:48.675Z,97136.66
2023-06-19T11:38:37.573Z,97143.00
2023-06-19T11:41:28.472Z,97136.19
2023-06-19T11:44:14.506Z,97138.69
2023-06-19T11:47:01.783Z,97126.59
2023-06-19T11:49:49.648Z,97115.78
2023-06-19T11:52:35.893Z,97104.16
2023-06-19T11:55:21.376Z,97112.13
2023-06-19T11:58:07.134Z,97118.31
2023-06-19T12:00:54.745Z,97114.50
2023-06-19T12:03:41.711Z,97115.63
2023-06-19T12:06:29.037Z,97127.09
2023-06-19T12:09:15.176Z,97127.41
2023-06-19T12:12:01.776Z,97134.25
2023-06-19T12:14:47.182Z,97134.09
2023-06-19T12:17:33.220Z,97128.50
2023-06-19T12:20:19.478Z,97132.34
2023-06-19T12:23:05.296Z,97139.81
2023-06-19T12:25:50.577Z,97136.34
2023-06-19T12:28:35.864Z,97138.72
2023-06-19T12:31:21.886Z,97143.00
2023-06-19T12:36:58.564Z,97136.63
2023-06-19T12:39:44.933Z,97128.50
2023-06-19T12:42:30.314Z,97130.59
2023-06-19T12:45:15.676Z,97136.50
2023-06-19T12:48:01.603Z,97136.94
2023-06-19T12:50:47.633Z,97127.41
2023-06-19T12:53:33.302Z,97131.38
2023-06-19T12:56:18.777Z,97129.97
2023-06-19T12:59:04.260Z,97126.28
2023-06-19T13:01:50.078Z,97122.66
2023-06-19T13:04:35.476Z,97121.84
2023-06-19T13:07:21.501Z,97115.31
2023-06-19T13:10:07.325Z,97106.69
2023-06-19T13:12:52.766Z,97105.94
2023-06-19T13:15:38.228Z,97111.31
2023-06-19T13:18:24.020Z,97108.94
2023-06-19T13:21:09.367Z,97103.78
2023-06-19T13:23:55.363Z,97101.06
2023-06-19T13:26:41.305Z,97099.69
2023-06-19T13:29:27.497Z,97095.41
2023-06-19T13:32:13.124Z,97093.88
2023-06-19T13:34:58.784Z,97091.22
2023-06-19T13:37:44.546Z,97088.56
2023-06-19T13:40:29.851Z,97078.34
2023-06-19T13:43:15.971Z,97079.41
2023-06-19T13:46:04.359Z,97077.13
2023-06-19T13:48:52.223Z,97086.31
2023-06-19T13:51:38.886Z,97091.75
2023-06-19T13:54:24.567Z,97094.38
2023-06-19T13:57:10.127Z,97088.63
2023-06-19T13:59:55.871Z,97078.72
2023-06-19T14:02:42.137Z,97078.25
2023-06-19T14:05:27.801Z,97077.75
2023-06-19T14:08:13.341Z,97076.44
2023-06-19T14:10:59.228Z,97062.63
2023-06-19T14:13:44.558Z,97063.31
2023-06-19T14:16:30.071Z,97060.13
2023-06-19T14:19:16.397Z,97056.06
2023-06-19T14:22:03.121Z,97058.88
2023-06-19T14:24:48.861Z,97056.44
2023-06-19T14:27:35.137Z,97052.75
2023-06-19T14:30:21.000Z,97057.78
2023-06-19T14:33:06.662Z,97050.75
2023-06-19T14:35:53.299Z,97055.47
2023-06-19T14:38:39.165Z,97046.16
2023-06-19T14:41:24.403Z,97048.88
2023-06-19T14:44:09.908Z,97048.34
2023-06-19T14:46:55.623Z,97043.28
2023-06-19T14:49:41.455Z,97046.88
2023-06-19T14:52:27.204Z,97045.94
2023-06-19T14:55:12.569Z,97040.78
2023-06-19T14:57:58.374Z,97039.94
2023-06-19T15:00:44.009Z,97051.09
2023-06-19T15:03:29.457Z,97038.41
2023-06-19T15:06:15.792Z,97035.56
2023-06-19T15:09:02.677Z,97029.81
2023-06-19T15:11:49.930Z,97029.31
2023-06-19T15:14:39.045Z,97026.16
2023-06-19T15:17:24.334Z,97028.00
2023-06-19T15:20:10.392Z,97021.63
2023-06-19T15:22:56.155Z,97020.25
2023-06-19T15:25:41.378Z,97008.97
2023-06-19T15:28:26.903Z,97009.09
2023-06-19T15:31:12.358Z,97003.63
2023-06-19T15:33:57.955Z,96997.94
2023-06-19T15:36:44.453Z,96998.69
2023-06-19T15:39:29.998Z,96988.84
2023-06-19T15:42:15.406Z,96989.22
2023-06-19T15:45:00.746Z,96984.25
2023-06-19T15:47:46.116Z,96988.69
2023-06-19T15:50:31.518Z,96980.47
2023-06-19T15:53:16.845Z,96983.44
2023-06-19T15:56:03.190Z,96985.31
2023-06-19T15:58:49.685Z,96982.50
2023-06-19T16:01:35.184Z,96985.16
2023-06-19T16:04:20.643Z,96974.78
2023-06-19T16:07:06.710Z,96987.06
2023-06-19T16:09:55.754Z,96966.56
2023-06-19T16:12:43.587Z,96967.28
2023-06-19T16:15:29.884Z,96963.66
2023-06-19T16:18:15.441Z,96965.69
2023-06-19T16:21:01.271Z,96969.03
2023-06-19T16:23:46.841Z,96962.31
2023-06-19T16:26:32.559Z,96971.22
2023-06-19T16:29:17.873Z,96964.09
2023-06-19T16:32:09.615Z,96971.06
2023-06-19T16:34:56.306Z,96968.66
2023-06-19T16:37:43.214Z,96961.78
2023-06-19T16:40:28.643Z,96966.28
2023-06-19T16:43:14.936Z,96967.72
2023-06-19T16:46:01.036Z,96962.97
2023-06-19T16:48:47.010Z,96959.81
2023-06-19T16:51:32.350Z,96965.22
2023-06-19T16:54:17.872Z,96967.00
2023-06-19T16:57:03.524Z,96971.16
2023-06-19T16:59:49.378Z,96966.84
2023-06-19T17:02:35.060Z,96970.94
2023-06-19T17:05:22.250Z,96966.88
2023-06-19T17:08:07.929Z,96970.94
2023-06-19T17:10:53.612Z,96962.78
2023-06-19T17:13:39.155Z,96972.22
2023-06-19T17:16:24.765Z,96969.94
2023-06-19T17:19:10.394Z,96972.38
2023-06-19T17:21:56.212Z,96975.28
2023-06-19T17:24:41.985Z,96981.41
2023-06-19T17:27:27.896Z,96984.41
2023-06-19T17:30:13.946Z,96980.53
2023-06-19T17:32:59.463Z,96988.53
2023-06-19T17:35:45.145Z,96981.84
2023-06-19T17:38:30.744Z,96985.97
2023-06-19T17:41:16.203Z,96989.88
2023-06-19T17:44:05.183Z,96991.50
2023-06-19T17:46:50.615Z,96999.00
2023-06-19T17:49:35.965Z,96995.75
2023-06-19T17:52:21.527Z,96992.22
2023-06-19T17:55:08.786Z,96987.13
2023-06-19T17:57:54.455Z,96987.69
2023-06-19T18:00:39.959Z,97000.78
2023-06-19T18:03:25.458Z,96996.59
2023-06-19T18:06:11.607Z,96990.06
2023-06-19T18:08:57.391Z,96992.75
2023-06-19T18:11:43.297Z,96989.94
2023-06-19T18:14:29.292Z,96990.41
2023-06-19T18:17:15.019Z,96988.94
2023-06-19T18:20:00.608Z,96992.13
2023-06-19T18:22:46.527Z,96987.81
2023-06-19T18:25:31.891Z,96989.56
2023-06-19T18:28:17.540Z,96991.34
2023-06-19T18:31:02.965Z,96991.19
2023-06-19T18:33:49.044Z,96992.47
2023-06-19T18:36:34.259Z,96998.22
2023-06-19T18:39:19.968Z,97005.78
2023-06-19T18:42:06.159Z,97003.41
2023-06-19T18:44:52.014Z,97002.00
2023-06-19T18:47:37.537Z,96996.66
2023-06-19T18:50:23.306Z,97003.56
2023-06-19T18:53:09.238Z,96997.53
2023-06-19T18:55:55.732Z,97002.97
2023-06-19T18:58:41.736Z,97005.03
2023-06-19T19:01:27.661Z,97002.69
2023-06-19T19:04:12.850Z,97003.91
2023-06-19T19:06:58.381Z,97007.53
2023-06-19T19:09:43.673Z,97014.53
2023-06-19T19:12:29.027Z,97010.72
2023-06-19T19:15:14.696Z,97004.97
2023-06-19T19:18:00.158Z,97020.22
2023-06-19T19:20:47.072Z,97014.78
2023-06-19T19:23:32.485Z,97020.69
2023-06-19T19:26:17.966Z,97015.19
2023-06-19T19:29:03.752Z,97022.38
2023-06-19T19:31:49.006Z,97030.38
2023-06-19T19:34:35.286Z,97027.63
2023-06-19T19:37:20.920Z,97034.22
2023-06-19T19:40:06.884Z,97037.50
2023-06-19T19:42:52.489Z,97036.34
2023-06-19T19:45:37.977Z,97036.09
2023-06-19T19:48:23.422Z,97041.09
2023-06-19T19:51:08.823Z,97041.50
2023-06-19T19:53:54.224Z,97038.84
2023-06-19T19:56:39.648Z,97054.03
2023-06-19T19:59:24.830Z,97053.72
2023-06-19T20:02:11.598Z,97054.69
2023-06-19T20:04:57.016Z,97052.91
2023-06-19T20:07:42.697Z,97055.81
2023-06-19T20:10:28.871Z,97061.56
2023-06-19T20:13:14.829Z,97060.78
2023-06-19T20:16:00.741Z,97062.16
2023-06-19T20:18:46.915Z,97063.53
2023-06-19T20:21:32.188Z,97058.25
2023-06-19T20:24:17.652Z,97064.34
2023-06-19T20:27:03.585Z,97066.09
2023-06-19T20:29:48.992Z,97067.06
2023-06-19T20:32:34.568Z,97069.63
2023-06-19T20:35:23.737Z,97068.72
2023-06-19T20:38:09.359Z,97069.69
2023-06-19T20:40:55.939Z,97070.84
2023-06-19T20:43:45.660Z,97076.66
2023-06-19T20:46:31.167Z,97078.41
2023-06-19T20:49:17.042Z,97077.38
2023-06-19T20:52:02.413Z,97086.81
2023-06-19T20:54:48.408Z,97083.66
2023-06-19T20:57:34.118Z,97088.19
2023-06-19T21:00:20.601Z,97087.69
2023-06-19T21:03:10.081Z,97085.88
2023-06-19T21:06:00.690Z,97083.31
2023-06-19T21:08:46.052Z,97077.03
2023-06-19T21:11:32.401Z,97084.72
2023-06-19T21:14:17.999Z,97087.78
2023-06-19T21:17:04.214Z,97080.34
2023-06-19T21:19:49.938Z,97075.03
2023-06-19T21:22:37.879Z,97081.25
2023-06-19T21:25:23.467Z,97073.56
2023-06-19T21:28:09.016Z,97069.88
2023-06-19T21:30:54.417Z,97072.88
2023-06-19T21:33:41.610Z,97080.19
2023-06-19T21:36:27.306Z,97082.41
2023-06-19T21:39:12.715Z,97085.69
2023-06-19T21:41:58.102Z,97089.50
2023-06-19T21:44:44.687Z,97097.00
2023-06-19T21:47:30.505Z,97088.97
2023-06-19T21:50:15.826Z,97089.31
2023-06-19T21:53:01.326Z,97090.97
2023-06-19T21:55:47.023Z,97089.13
2023-06-19T21:58:32.857Z,97089.75
2023-06-19T22:01:18.248Z,97084.66
2023-06-19T22:04:05.798Z,97081.47
2023-06-19T22:06:52.703Z,97076.34
2023-06-19T22:09:38.837Z,97080.63
2023-06-19T22:12:24.376Z,97082.50
2023-06-19T22:15:10.232Z,97083.91
2023-06-19T22:17:55.925Z,97089.28
2023-06-19T22:21:11.956Z,97082.38
2023-06-19T22:23:57.725Z,97080.75
2023-06-19T22:26:43.481Z,97083.94
2023-06-19T22:29:29.151Z,97093.09
2023-06-19T22:32:15.096Z,97091.47
2023-06-19T22:35:00.527Z,97087.72
2023-06-19T22:37:46.359Z,97089.59
2023-06-19T22:40:31.894Z,97082.38
2023-06-19T22:43:17.200Z,97077.50
2023-06-19T22:46:02.537Z,97081.81
2023-06-19T22:48:51.857Z,97087.69
2023-06-19T22:51:37.191Z,97078.59
2023-06-19T22:54:22.793Z,97073.72
2023-06-19T22:57:08.225Z,97084.97
2023-06-19T22:59:53.617Z,97092.47
2023-06-19T23:02:40.104Z,97083.38
2023-06-19T23:05:26.154Z,97075.88
2023-06-19T23:08:12.024Z,97065.16
2023-06-19T23:10:57.455Z,97067.03
2023-06-19T23:13:42.722Z,97060.16
2023-06-19T23:16:28.306Z,97068.78
2023-06-19T23:19:13.624Z,97075.25
2023-06-19T23:21:59.091Z,97074.19
2023-06-19T23:24:44.737Z,97074.47
2023-06-19T23:27:30.431Z,97066.19
2023-06-19T23:30:15.951Z,97067.28
2023-06-19T23:33:01.399Z,97074.22
2023-06-19T23:35:47.016Z,97071.59
2023-06-19T23:38:35.551Z,97068.94
2023-06-19T23:41:21.857Z,97065.44
2023-06-19T23:44:07.746Z,97059.81
2023-06-19T23:46:53.330Z,97053.66
2023-06-19T23:49:42.832Z,97061.19
2023-06-19T23:52:38.759Z,97058.03
2023-06-19T23:55:29.585Z,97042.81
2023-06-19T23:58:14.934Z,97044.44
